Denmark, Iowa
Current Conditions -  °F | °C
As of 7:35 PM on Wednesday 26 Nov 2014 (Local Time) from KFSW Reporting Station
Light Snow Light Snow  
Wind Chill: 22°   Ceiling: 1000
Heat Index: 30°   Visibility: 5mi
Dew Point: 28°   Wind: 9mph
Humidity: 93%   Direction: 30°NNE
Pressure: 30.16"   Gusts: NA
Location:  40.74°N, 91.34°W
Report Text: KFSW 270135Z AUTO 03008KT 5SM -SN SCT007 BKN010 OVC060 M01/M02 A3016 RMK AO2
Loading
Personal Weather Stations






























Interactive Weather Map New forecast layout! Learn more

10-Day Weather Forecast

Advertisements
Track Severe Weather on mobile